createdAt,value
2017-02-18T00:00:06.929Z,0
2017-02-18T00:01:16.697Z,0
2017-02-18T00:02:27.305Z,0
2017-02-18T00:03:38.048Z,0
2017-02-18T00:04:47.796Z,0
2017-02-18T00:05:58.427Z,0
2017-02-18T00:07:07.750Z,0
2017-02-18T00:08:17.080Z,0
2017-02-18T00:09:26.877Z,0
2017-02-18T00:10:36.188Z,0
2017-02-18T00:11:45.511Z,0
2017-02-18T00:12:55.278Z,0
2017-02-18T00:14:05.465Z,0
2017-02-18T00:15:14.819Z,0
2017-02-18T00:16:24.572Z,0
2017-02-18T00:17:34.335Z,0
2017-02-18T00:18:43.660Z,0
2017-02-18T00:19:52.985Z,0
2017-02-18T00:21:02.383Z,0
2017-02-18T00:22:11.710Z,0
2017-02-18T00:23:22.772Z,0
2017-02-18T00:24:32.517Z,0
2017-02-18T00:25:42.702Z,0
2017-02-18T00:26:52.942Z,0
2017-02-18T00:28:03.116Z,0
2017-02-18T00:29:13.737Z,0
2017-02-18T00:30:23.479Z,0
2017-02-18T00:31:33.664Z,0
2017-02-18T00:32:44.332Z,0
2017-02-18T00:33:54.542Z,0
2017-02-18T00:35:04.719Z,0
2017-02-18T00:36:14.902Z,0
2017-02-18T00:37:25.081Z,0
2017-02-18T00:38:35.336Z,0
2017-02-18T00:39:44.641Z,0
2017-02-18T00:40:54.399Z,0
2017-02-18T00:42:03.706Z,0
2017-02-18T00:43:13.487Z,0
2017-02-18T00:44:23.282Z,0
2017-02-18T00:45:33.023Z,0
2017-02-18T00:46:43.220Z,0
2017-02-18T00:47:53.003Z,0
2017-02-18T00:49:02.751Z,0
2017-02-18T00:50:12.118Z,0
2017-02-18T00:51:21.423Z,0
2017-02-18T00:52:31.602Z,0
2017-02-18T00:53:41.350Z,0
2017-02-18T00:54:51.523Z,0
2017-02-18T00:56:02.218Z,0
2017-02-18T00:57:11.971Z,0
2017-02-18T00:58:21.750Z,0
2017-02-18T00:59:31.505Z,0
2017-02-18T01:00:41.264Z,0
2017-02-18T01:01:51.926Z,0
2017-02-18T01:03:02.986Z,0
2017-02-18T01:04:12.726Z,0
2017-02-18T01:05:22.489Z,0
2017-02-18T01:06:32.240Z,0
2017-02-18T01:07:42.051Z,0
2017-02-18T01:08:52.225Z,0
2017-02-18T01:10:02.420Z,0
2017-02-18T01:11:12.608Z,0
2017-02-18T01:12:22.358Z,0
2017-02-18T01:13:32.597Z,0
2017-02-18T01:14:42.783Z,0
2017-02-18T01:15:52.530Z,0
2017-02-18T01:17:03.141Z,0
2017-02-18T01:18:13.355Z,0
2017-02-18T01:19:24.037Z,0
2017-02-18T01:20:33.786Z,0
2017-02-18T01:21:43.535Z,0
2017-02-18T01:22:53.705Z,0
2017-02-18T01:24:03.470Z,0
2017-02-18T01:25:13.281Z,0
2017-02-18T01:26:23.018Z,0
2017-02-18T01:27:33.627Z,0
2017-02-18T01:28:44.258Z,0
2017-02-18T01:29:54.007Z,0
2017-02-18T01:31:03.403Z,0
2017-02-18T01:32:14.037Z,0
2017-02-18T01:33:24.211Z,0
2017-02-18T01:34:33.955Z,0
2017-02-18T01:35:44.140Z,0
2017-02-18T01:36:54.800Z,0
2017-02-18T01:38:04.990Z,0
2017-02-18T01:39:15.204Z,0
2017-02-18T01:40:25.386Z,0
2017-02-18T01:41:35.590Z,0
2017-02-18T01:42:46.255Z,0
2017-02-18T01:43:56.050Z,0
2017-02-18T01:45:05.834Z,0
2017-02-18T01:46:16.464Z,0
2017-02-18T01:47:25.776Z,0
2017-02-18T01:48:36.009Z,0
2017-02-18T01:49:45.754Z,0
2017-02-18T01:50:56.385Z,0
2017-02-18T01:52:05.714Z,0
2017-02-18T01:53:15.459Z,0
2017-02-18T01:54:24.824Z,0
2017-02-18T01:55:35.000Z,0
2017-02-18T01:56:45.177Z,0
2017-02-18T01:57:55.352Z,0
2017-02-18T01:59:04.661Z,0
2017-02-18T02:00:14.029Z,0
2017-02-18T02:01:23.330Z,0
2017-02-18T02:02:33.552Z,0
2017-02-18T02:03:43.354Z,0
2017-02-18T02:04:53.110Z,0
2017-02-18T02:06:02.912Z,0
2017-02-18T02:07:12.656Z,0
2017-02-18T02:08:21.966Z,0
2017-02-18T02:09:31.282Z,0
2017-02-18T02:10:40.597Z,0
2017-02-18T02:11:50.841Z,0
2017-02-18T02:13:00.599Z,0
2017-02-18T02:14:10.803Z,0
2017-02-18T02:15:20.542Z,0
2017-02-18T02:16:30.739Z,0
2017-02-18T02:17:40.101Z,0
2017-02-18T02:18:50.712Z,0
2017-02-18T02:20:00.911Z,0
2017-02-18T02:21:10.664Z,0
2017-02-18T02:22:20.861Z,0
2017-02-18T02:23:30.232Z,0
2017-02-18T02:24:40.413Z,0
2017-02-18T02:25:50.164Z,0
2017-02-18T02:26:59.904Z,0
2017-02-18T02:28:09.653Z,0
2017-02-18T02:29:19.676Z,0
2017-02-18T02:30:28.997Z,0
2017-02-18T02:31:38.741Z,0
2017-02-18T02:32:48.910Z,0
2017-02-18T02:33:59.537Z,0
2017-02-18T02:35:09.366Z,0
2017-02-18T02:36:18.674Z,0
2017-02-18T02:37:28.876Z,0
2017-02-18T02:38:39.077Z,0
2017-02-18T02:39:48.863Z,0
2017-02-18T02:40:58.660Z,0
2017-02-18T02:42:07.970Z,0
2017-02-18T02:43:17.753Z,0
2017-02-18T02:44:27.522Z,0
2017-02-18T02:45:37.316Z,0
2017-02-18T02:46:46.684Z,0
2017-02-18T02:47:56.872Z,0
2017-02-18T02:49:06.636Z,0
2017-02-18T02:50:16.835Z,0
2017-02-18T02:51:27.030Z,0
2017-02-18T02:52:37.479Z,0
2017-02-18T02:53:46.786Z,0
2017-02-18T02:54:56.563Z,0
2017-02-18T02:56:06.770Z,0
2017-02-18T02:57:16.554Z,0
2017-02-18T02:58:26.957Z,0
2017-02-18T02:59:36.718Z,0
2017-02-18T03:00:46.471Z,0
2017-02-18T03:01:56.228Z,0
2017-02-18T03:03:05.982Z,0
2017-02-18T03:04:15.367Z,0
2017-02-18T03:05:25.991Z,0
2017-02-18T03:06:35.325Z,0
2017-02-18T03:07:44.654Z,0
2017-02-18T03:08:54.439Z,0
2017-02-18T03:10:04.253Z,0
2017-02-18T03:11:13.585Z,0
2017-02-18T03:12:23.359Z,0
2017-02-18T03:13:33.552Z,0
2017-02-18T03:14:43.304Z,0
2017-02-18T03:15:52.709Z,0
2017-02-18T03:17:02.540Z,0
2017-02-18T03:18:11.852Z,0
2017-02-18T03:19:21.644Z,0
2017-02-18T03:20:31.842Z,0
2017-02-18T03:21:42.081Z,0
2017-02-18T03:22:51.395Z,0
2017-02-18T03:24:01.139Z,0
2017-02-18T03:25:10.463Z,0
2017-02-18T03:26:20.658Z,0
2017-02-18T03:27:30.923Z,0
2017-02-18T03:28:40.776Z,0
2017-02-18T03:29:50.977Z,0
2017-02-18T03:31:01.179Z,0
2017-02-18T03:32:11.378Z,0
2017-02-18T03:33:20.754Z,0
2017-02-18T03:34:30.056Z,0
2017-02-18T03:35:41.194Z,0
2017-02-18T03:36:50.943Z,0
2017-02-18T03:38:01.151Z,0
2017-02-18T03:39:11.151Z,0
2017-02-18T03:40:20.462Z,0
2017-02-18T03:41:30.243Z,0
2017-02-18T03:42:39.993Z,0
2017-02-18T03:43:49.737Z,0
2017-02-18T03:44:59.548Z,0
2017-02-18T03:46:08.854Z,0
2017-02-18T03:47:18.614Z,0
2017-02-18T03:48:28.859Z,0
2017-02-18T03:49:38.220Z,0
2017-02-18T03:50:48.053Z,0
2017-02-18T03:51:58.231Z,0
2017-02-18T03:53:07.575Z,0
2017-02-18T03:54:17.765Z,0
2017-02-18T03:55:28.392Z,0
2017-02-18T03:56:38.230Z,0
2017-02-18T03:57:47.992Z,0
2017-02-18T03:58:57.762Z,0
2017-02-18T04:00:07.071Z,0
2017-02-18T04:01:16.388Z,0
2017-02-18T04:02:26.205Z,0
2017-02-18T04:03:35.950Z,0
2017-02-18T04:04:45.712Z,0
2017-02-18T04:05:55.910Z,0
2017-02-18T04:07:05.669Z,0
2017-02-18T04:08:15.912Z,0
2017-02-18T04:09:25.685Z,0
2017-02-18T04:10:34.997Z,0
2017-02-18T04:11:45.185Z,0
2017-02-18T04:12:55.812Z,0
2017-02-18T04:14:05.200Z,0
2017-02-18T04:15:14.943Z,0
2017-02-18T04:16:24.270Z,0
2017-02-18T04:17:34.016Z,0
2017-02-18T04:18:44.197Z,0
2017-02-18T04:19:54.448Z,0
2017-02-18T04:21:04.211Z,0
2017-02-18T04:22:14.840Z,0
2017-02-18T04:23:24.624Z,0
2017-02-18T04:24:34.396Z,0
2017-02-18T04:25:44.192Z,0
2017-02-18T04:26:54.382Z,0
2017-02-18T04:28:04.172Z,0
2017-02-18T04:29:13.486Z,0
2017-02-18T04:30:22.788Z,0
2017-02-18T04:31:33.119Z,0
2017-02-18T04:32:42.868Z,0
2017-02-18T04:33:52.697Z,0
2017-02-18T04:35:02.019Z,0
2017-02-18T04:36:11.352Z,0
2017-02-18T04:37:20.723Z,0
2017-02-18T04:38:30.933Z,0
2017-02-18T04:39:40.755Z,0
2017-02-18T04:40:51.406Z,0
2017-02-18T04:42:02.048Z,0
2017-02-18T04:43:12.784Z,0
2017-02-18T04:44:23.872Z,0
2017-02-18T04:45:33.641Z,0
2017-02-18T04:46:44.277Z,0
2017-02-18T04:47:54.900Z,0
2017-02-18T04:49:04.697Z,0
2017-02-18T04:50:14.037Z,0
2017-02-18T04:51:24.224Z,0
2017-02-18T04:52:33.979Z,0
2017-02-18T04:53:44.162Z,0
2017-02-18T04:54:53.983Z,0
2017-02-18T04:56:04.171Z,0
2017-02-18T04:57:14.358Z,0
2017-02-18T04:58:23.683Z,0
2017-02-18T04:59:33.440Z,0
2017-02-18T05:00:43.263Z,0
2017-02-18T05:01:53.014Z,0
2017-02-18T05:03:02.324Z,0
2017-02-18T05:04:11.636Z,0
2017-02-18T05:05:22.272Z,0
2017-02-18T05:06:32.541Z,0
2017-02-18T05:07:43.165Z,0
2017-02-18T05:08:53.340Z,0
2017-02-18T05:10:03.087Z,0
2017-02-18T05:11:12.412Z,0
2017-02-18T05:12:22.676Z,0
2017-02-18T05:13:32.026Z,0
2017-02-18T05:14:41.347Z,0
2017-02-18T05:15:51.549Z,0
2017-02-18T05:17:01.302Z,0
2017-02-18T05:18:11.977Z,0
2017-02-18T05:19:22.168Z,0
2017-02-18T05:20:31.948Z,0
2017-02-18T05:21:43.010Z,0
2017-02-18T05:22:52.793Z,0
2017-02-18T05:24:02.157Z,0
2017-02-18T05:25:11.925Z,0
2017-02-18T05:26:21.670Z,0
2017-02-18T05:27:30.977Z,0
2017-02-18T05:28:41.172Z,0
2017-02-18T05:29:51.421Z,0
2017-02-18T05:31:01.639Z,0
2017-02-18T05:32:11.409Z,0
2017-02-18T05:33:20.754Z,0
2017-02-18T05:34:30.075Z,0
2017-02-18T05:35:39.876Z,0
2017-02-18T05:36:49.193Z,0
2017-02-18T05:37:58.943Z,0
2017-02-18T05:39:08.691Z,0
2017-02-18T05:40:19.332Z,0
2017-02-18T05:41:29.575Z,0
2017-02-18T05:42:38.884Z,0
2017-02-18T05:43:48.251Z,0
2017-02-18T05:44:57.997Z,0
2017-02-18T05:46:07.767Z,0
2017-02-18T05:47:17.636Z,0
2017-02-18T05:48:27.382Z,0
2017-02-18T05:49:37.563Z,0
2017-02-18T05:50:47.324Z,0
2017-02-18T05:51:57.543Z,0
2017-02-18T05:53:07.782Z,0
2017-02-18T05:54:17.992Z,0
2017-02-18T05:55:27.737Z,0
2017-02-18T05:56:37.506Z,0
2017-02-18T05:57:48.137Z,0
2017-02-18T05:58:58.832Z,0
2017-02-18T06:00:08.139Z,0
2017-02-18T06:01:17.895Z,0
2017-02-18T06:02:27.211Z,0
2017-02-18T06:03:37.400Z,0
2017-02-18T06:04:47.234Z,0
2017-02-18T06:05:56.980Z,0
2017-02-18T06:07:07.612Z,0
2017-02-18T06:08:17.353Z,0
2017-02-18T06:09:28.003Z,0
2017-02-18T06:10:38.248Z,0
2017-02-18T06:11:48.000Z,0
2017-02-18T06:12:57.742Z,0
2017-02-18T06:14:07.486Z,0
2017-02-18T06:15:17.692Z,0
2017-02-18T06:16:27.498Z,0
2017-02-18T06:17:38.139Z,0
2017-02-18T06:18:48.356Z,0
2017-02-18T06:19:58.548Z,0
2017-02-18T06:21:09.181Z,0
2017-02-18T06:22:19.004Z,0
2017-02-18T06:23:28.311Z,0
2017-02-18T06:24:38.054Z,0
2017-02-18T06:25:47.806Z,0
2017-02-18T06:26:58.877Z,0
2017-02-18T06:28:08.686Z,0
2017-02-18T06:29:18.015Z,0
2017-02-18T06:30:27.779Z,0
2017-02-18T06:31:37.117Z,0
2017-02-18T06:32:46.882Z,0
2017-02-18T06:33:57.280Z,0
2017-02-18T06:35:07.053Z,0
2017-02-18T06:36:16.827Z,0
2017-02-18T06:37:26.591Z,0
2017-02-18T06:38:36.341Z,0
2017-02-18T06:39:46.169Z,0
2017-02-18T06:40:55.505Z,0
2017-02-18T06:42:05.256Z,0
2017-02-18T06:43:14.585Z,0
2017-02-18T06:44:24.354Z,0
2017-02-18T06:45:34.159Z,0
2017-02-18T06:46:43.907Z,0
2017-02-18T06:47:54.101Z,0
2017-02-18T06:49:03.885Z,0
2017-02-18T06:50:14.087Z,0
2017-02-18T06:51:23.900Z,0
2017-02-18T06:52:34.090Z,0
2017-02-18T06:53:44.711Z,0
2017-02-18T06:54:54.516Z,5
2017-02-18T06:56:04.725Z,5
2017-02-18T06:57:14.514Z,5
2017-02-18T06:58:23.834Z,5
2017-02-18T06:59:34.020Z,5
2017-02-18T07:00:44.233Z,5
2017-02-18T07:01:54.414Z,5
2017-02-18T07:03:04.661Z,5
2017-02-18T07:04:14.886Z,5
2017-02-18T07:05:25.102Z,5
2017-02-18T07:06:34.883Z,5
2017-02-18T07:07:45.100Z,5
2017-02-18T07:08:55.542Z,5
2017-02-18T07:10:05.300Z,5
2017-02-18T07:11:15.059Z,5
2017-02-18T07:12:25.282Z,5
2017-02-18T07:13:35.028Z,5
2017-02-18T07:14:44.840Z,5
2017-02-18T07:15:54.606Z,5
2017-02-18T07:17:04.359Z,5
2017-02-18T07:18:14.108Z,5
2017-02-18T07:19:23.861Z,5
2017-02-18T07:20:34.103Z,10
2017-02-18T07:21:44.314Z,10
2017-02-18T07:22:54.075Z,5
2017-02-18T07:24:03.838Z,10
2017-02-18T07:25:14.070Z,10
2017-02-18T07:26:24.790Z,10
2017-02-18T07:27:34.093Z,10
2017-02-18T07:28:43.838Z,10
2017-02-18T07:29:53.603Z,10
2017-02-18T07:31:03.397Z,10
2017-02-18T07:32:13.234Z,10
2017-02-18T07:33:23.455Z,10
2017-02-18T07:34:33.196Z,10
2017-02-18T07:35:42.954Z,10
2017-02-18T07:36:53.149Z,15
2017-02-18T07:38:02.960Z,15
2017-02-18T07:39:12.729Z,15
2017-02-18T07:40:23.802Z,15
2017-02-18T07:41:33.568Z,15
2017-02-18T07:42:42.888Z,15
2017-02-18T07:43:52.243Z,15
2017-02-18T07:45:02.436Z,15
2017-02-18T07:46:12.192Z,20
2017-02-18T07:47:21.937Z,15
2017-02-18T07:48:32.121Z,15
2017-02-18T07:49:42.375Z,15
2017-02-18T07:50:52.572Z,20
2017-02-18T07:52:02.761Z,20
2017-02-18T07:53:12.547Z,20
2017-02-18T07:54:21.952Z,25
2017-02-18T07:55:31.322Z,25
2017-02-18T07:56:41.546Z,25
2017-02-18T07:57:51.792Z,20
2017-02-18T07:59:02.026Z,15
2017-02-18T08:00:11.838Z,20
2017-02-18T08:01:21.660Z,20
2017-02-18T08:02:30.993Z,25
2017-02-18T08:03:40.763Z,25
2017-02-18T08:04:50.087Z,30
2017-02-18T08:05:59.396Z,25
2017-02-18T08:07:08.774Z,30
2017-02-18T08:08:18.098Z,30
2017-02-18T08:09:28.278Z,25
2017-02-18T08:10:38.471Z,25
2017-02-18T08:11:48.235Z,25
2017-02-18T08:12:58.474Z,25
2017-02-18T08:14:08.231Z,25
2017-02-18T08:15:18.032Z,30
2017-02-18T08:16:28.650Z,25
2017-02-18T08:17:38.436Z,25
2017-02-18T08:18:48.252Z,25
2017-02-18T08:19:57.573Z,30
2017-02-18T08:21:07.318Z,30
2017-02-18T08:22:17.495Z,25
2017-02-18T08:23:27.702Z,25
2017-02-18T08:24:37.492Z,25
2017-02-18T08:25:46.818Z,30
2017-02-18T08:26:56.133Z,25
2017-02-18T08:28:06.331Z,30
2017-02-18T08:29:16.080Z,30
2017-02-18T08:30:25.887Z,25
2017-02-18T08:31:36.086Z,20
2017-02-18T08:32:46.293Z,20
2017-02-18T08:33:57.373Z,20
2017-02-18T08:35:07.572Z,20
2017-02-18T08:36:17.363Z,20
2017-02-18T08:37:27.108Z,25
2017-02-18T08:38:36.860Z,30
2017-02-18T08:39:46.606Z,35
2017-02-18T08:40:56.362Z,30
2017-02-18T08:42:06.169Z,25
2017-02-18T08:43:15.492Z,25
2017-02-18T08:44:25.251Z,25
2017-02-18T08:45:35.024Z,25
2017-02-18T08:46:45.238Z,25
2017-02-18T08:47:55.079Z,25
2017-02-18T08:49:05.268Z,30
2017-02-18T08:50:15.456Z,25
2017-02-18T08:51:25.199Z,30
2017-02-18T08:52:34.947Z,35
2017-02-18T08:53:45.176Z,35
2017-02-18T08:54:54.954Z,35
2017-02-18T08:56:04.271Z,35
2017-02-18T08:57:13.581Z,35
2017-02-18T08:58:22.918Z,35
2017-02-18T08:59:32.299Z,30
2017-02-18T09:00:42.079Z,30
2017-02-18T09:01:51.829Z,30
2017-02-18T09:03:02.046Z,35
2017-02-18T09:04:12.686Z,40
2017-02-18T09:05:22.048Z,40
2017-02-18T09:06:31.824Z,40
2017-02-18T09:07:41.582Z,35
2017-02-18T09:08:51.797Z,30
2017-02-18T09:10:02.006Z,30
2017-02-18T09:11:11.363Z,30
2017-02-18T09:12:21.131Z,30
2017-02-18T09:13:30.888Z,30
2017-02-18T09:14:41.525Z,35
2017-02-18T09:15:50.847Z,35
2017-02-18T09:17:01.543Z,35
2017-02-18T09:18:11.301Z,40
2017-02-18T09:19:21.505Z,40
2017-02-18T09:20:32.158Z,45
2017-02-18T09:21:42.357Z,45
2017-02-18T09:22:52.182Z,45
2017-02-18T09:24:02.391Z,45
2017-02-18T09:25:12.155Z,45
2017-02-18T09:26:22.352Z,55
2017-02-18T09:27:32.548Z,50
2017-02-18T09:28:41.927Z,45
2017-02-18T09:29:53.009Z,45
2017-02-18T09:31:03.646Z,45
2017-02-18T09:32:13.393Z,40
2017-02-18T09:33:22.725Z,45
2017-02-18T09:34:32.681Z,45
2017-02-18T09:35:42.454Z,50
2017-02-18T09:36:53.090Z,45
2017-02-18T09:38:03.756Z,45
2017-02-18T09:39:13.089Z,45
2017-02-18T09:40:23.348Z,50
2017-02-18T09:41:33.561Z,55
2017-02-18T09:42:43.817Z,55
2017-02-18T09:43:54.015Z,55
2017-02-18T09:45:03.349Z,50
2017-02-18T09:46:12.722Z,55
2017-02-18T09:47:22.046Z,60
2017-02-18T09:48:32.260Z,50
2017-02-18T09:49:42.473Z,40
2017-02-18T09:50:52.253Z,40
2017-02-18T09:52:02.152Z,45
2017-02-18T09:53:11.897Z,45
2017-02-18T09:54:21.226Z,50
2017-02-18T09:55:30.559Z,50
2017-02-18T09:56:40.316Z,45
2017-02-18T09:57:50.560Z,45
2017-02-18T09:59:00.339Z,55
2017-02-18T10:00:10.540Z,55
2017-02-18T10:01:19.868Z,50
2017-02-18T10:02:29.604Z,50
2017-02-18T10:03:39.409Z,50
2017-02-18T10:04:49.151Z,50
2017-02-18T10:05:59.368Z,50
2017-02-18T10:07:10.003Z,50
2017-02-18T10:08:19.331Z,50
2017-02-18T10:09:29.566Z,45
2017-02-18T10:10:39.345Z,40
2017-02-18T10:11:49.096Z,40
2017-02-18T10:12:58.407Z,40
2017-02-18T10:14:08.165Z,45
2017-02-18T10:15:17.536Z,40
2017-02-18T10:16:27.300Z,40
2017-02-18T10:17:36.622Z,40
2017-02-18T10:18:45.957Z,45
2017-02-18T10:19:55.284Z,45
2017-02-18T10:21:05.089Z,45
2017-02-18T10:22:14.410Z,45
2017-02-18T10:23:25.031Z,45
2017-02-18T10:24:35.227Z,45
2017-02-18T10:25:44.997Z,45
2017-02-18T10:26:54.795Z,40
2017-02-18T10:28:04.979Z,45
2017-02-18T10:29:14.331Z,50
2017-02-18T10:30:24.957Z,50
2017-02-18T10:31:34.707Z,50
2017-02-18T10:32:44.510Z,60
2017-02-18T10:33:54.266Z,55
2017-02-18T10:35:04.055Z,45
2017-02-18T10:36:13.819Z,50
2017-02-18T10:37:23.152Z,50
2017-02-18T10:38:33.410Z,50
2017-02-18T10:39:42.735Z,50
2017-02-18T10:40:53.364Z,45
2017-02-18T10:42:03.121Z,40
2017-02-18T10:43:13.313Z,35
2017-02-18T10:44:22.674Z,35
2017-02-18T10:45:32.851Z,35
2017-02-18T10:46:43.494Z,40
2017-02-18T10:47:54.135Z,45
2017-02-18T10:49:03.900Z,45
2017-02-18T10:50:14.153Z,40
2017-02-18T10:51:23.473Z,40
2017-02-18T10:52:32.796Z,50
2017-02-18T10:53:42.999Z,55
2017-02-18T10:54:54.066Z,45
2017-02-18T10:56:03.856Z,45
2017-02-18T10:57:14.532Z,45
2017-02-18T10:58:24.285Z,50
2017-02-18T10:59:34.479Z,50
2017-02-18T11:00:43.804Z,45
2017-02-18T11:01:53.176Z,45
2017-02-18T11:03:03.811Z,50
2017-02-18T11:04:13.611Z,55
2017-02-18T11:05:22.936Z,55
2017-02-18T11:06:32.706Z,65
2017-02-18T11:07:42.656Z,65
2017-02-18T11:08:52.435Z,50
2017-02-18T11:10:02.620Z,65
2017-02-18T11:11:12.810Z,85
2017-02-18T11:12:22.588Z,95
2017-02-18T11:13:32.069Z,100
2017-02-18T11:14:41.403Z,100
2017-02-18T11:15:51.164Z,100
2017-02-18T11:17:00.909Z,100
2017-02-18T11:18:10.229Z,95
2017-02-18T11:19:20.474Z,100
2017-02-18T11:20:30.241Z,100
2017-02-18T11:21:40.417Z,100
2017-02-18T11:22:50.606Z,100
2017-02-18T11:23:59.915Z,105
2017-02-18T11:25:09.720Z,105
2017-02-18T11:26:19.465Z,100
2017-02-18T11:27:29.679Z,105
2017-02-18T11:28:39.451Z,100
2017-02-18T11:29:49.189Z,100
2017-02-18T11:30:59.986Z,95
2017-02-18T11:32:09.306Z,90
2017-02-18T11:33:18.624Z,85
2017-02-18T11:34:28.398Z,80
2017-02-18T11:35:38.165Z,85
2017-02-18T11:36:48.421Z,80
2017-02-18T11:37:58.636Z,75
2017-02-18T11:39:08.381Z,70
2017-02-18T11:40:18.598Z,65
2017-02-18T11:41:28.767Z,65
2017-02-18T11:42:39.461Z,70
2017-02-18T11:43:49.230Z,70
2017-02-18T11:44:59.421Z,75
2017-02-18T11:46:08.734Z,75
2017-02-18T11:47:18.922Z,80
2017-02-18T11:48:29.391Z,75
2017-02-18T11:49:39.177Z,75
2017-02-18T11:50:49.368Z,75
2017-02-18T11:51:59.136Z,80
2017-02-18T11:53:09.376Z,85
2017-02-18T11:54:18.738Z,75
2017-02-18T11:55:28.513Z,75
2017-02-18T11:56:38.722Z,75
2017-02-18T11:57:50.967Z,65
2017-02-18T11:59:01.149Z,60
2017-02-18T12:00:11.850Z,60
2017-02-18T12:01:21.168Z,60
2017-02-18T12:02:30.912Z,60
2017-02-18T12:03:40.679Z,65
2017-02-18T12:04:50.475Z,65
2017-02-18T12:06:00.708Z,60
2017-02-18T12:07:10.467Z,70
2017-02-18T12:08:20.242Z,75
2017-02-18T12:09:30.437Z,75
2017-02-18T12:10:39.806Z,75
2017-02-18T12:11:49.655Z,70
2017-02-18T12:13:00.292Z,65
2017-02-18T12:14:10.049Z,60
2017-02-18T12:15:19.802Z,60
2017-02-18T12:16:29.131Z,65
2017-02-18T12:17:38.941Z,65
2017-02-18T12:18:48.266Z,65
2017-02-18T12:19:58.036Z,70
2017-02-18T12:21:07.356Z,65
2017-02-18T12:22:17.134Z,70
2017-02-18T12:23:26.940Z,75
2017-02-18T12:24:36.688Z,60
2017-02-18T12:25:46.450Z,55
2017-02-18T12:26:55.773Z,50
2017-02-18T12:28:06.422Z,50
2017-02-18T12:29:16.672Z,50
2017-02-18T12:30:26.436Z,45
2017-02-18T12:31:36.200Z,45
2017-02-18T12:32:45.951Z,45
2017-02-18T12:33:57.010Z,45
2017-02-18T12:35:07.002Z,45
2017-02-18T12:36:17.624Z,50
2017-02-18T12:37:27.391Z,50
2017-02-18T12:38:37.151Z,50
2017-02-18T12:39:47.343Z,45
2017-02-18T12:40:56.720Z,45
2017-02-18T12:42:06.925Z,50
2017-02-18T12:43:16.671Z,55
2017-02-18T12:44:26.429Z,50
2017-02-18T12:45:35.758Z,50
2017-02-18T12:46:45.115Z,45
2017-02-18T12:47:55.306Z,50
2017-02-18T12:49:05.956Z,50
2017-02-18T12:50:15.743Z,45
2017-02-18T12:51:25.076Z,40
2017-02-18T12:52:35.325Z,45
2017-02-18T12:53:45.083Z,50
2017-02-18T12:54:54.419Z,50
2017-02-18T12:56:04.208Z,45
2017-02-18T12:57:14.404Z,45
2017-02-18T12:58:24.242Z,45
2017-02-18T12:59:34.019Z,45
2017-02-18T13:00:43.781Z,45
2017-02-18T13:01:53.538Z,40
2017-02-18T13:03:03.319Z,40
2017-02-18T13:04:13.132Z,55
2017-02-18T13:05:23.328Z,50
2017-02-18T13:06:33.527Z,50
2017-02-18T13:07:43.260Z,50
2017-02-18T13:08:53.021Z,55
2017-02-18T13:10:02.840Z,50
2017-02-18T13:11:13.063Z,45
2017-02-18T13:12:23.721Z,40
2017-02-18T13:13:33.039Z,60
2017-02-18T13:14:43.228Z,50
2017-02-18T13:15:53.621Z,50
2017-02-18T13:17:02.944Z,50
2017-02-18T13:18:12.285Z,50
2017-02-18T13:19:22.924Z,45
2017-02-18T13:20:32.677Z,45
2017-02-18T13:21:42.927Z,45
2017-02-18T13:22:52.236Z,55
2017-02-18T13:24:02.429Z,55
2017-02-18T13:25:12.626Z,45
2017-02-18T13:26:22.839Z,40
2017-02-18T13:27:32.252Z,40
2017-02-18T13:28:42.454Z,50
2017-02-18T13:29:52.243Z,45
2017-02-18T13:31:01.564Z,40
2017-02-18T13:32:12.632Z,50
2017-02-18T13:33:23.358Z,60
2017-02-18T13:34:32.675Z,55
2017-02-18T13:35:42.439Z,50
2017-02-18T13:36:52.213Z,50
2017-02-18T13:38:02.839Z,50
2017-02-18T13:39:12.196Z,40
2017-02-18T13:40:21.501Z,40
2017-02-18T13:41:30.802Z,45
2017-02-18T13:42:41.435Z,45
2017-02-18T13:43:51.644Z,55
2017-02-18T13:45:01.883Z,50
2017-02-18T13:46:12.504Z,45
2017-02-18T13:47:22.689Z,55
2017-02-18T13:48:32.010Z,55
2017-02-18T13:49:41.335Z,55
2017-02-18T13:50:51.134Z,60
2017-02-18T13:52:01.338Z,55
2017-02-18T13:53:10.650Z,45
2017-02-18T13:54:21.309Z,60
2017-02-18T13:55:30.624Z,55
2017-02-18T13:56:40.869Z,55
2017-02-18T13:57:51.494Z,60
2017-02-18T13:59:01.271Z,55
2017-02-18T14:00:11.911Z,60
2017-02-18T14:01:21.222Z,50
2017-02-18T14:02:31.036Z,55
2017-02-18T14:03:40.346Z,55
2017-02-18T14:04:49.666Z,55
2017-02-18T14:05:59.419Z,60
2017-02-18T14:07:10.501Z,60
2017-02-18T14:08:20.321Z,60
2017-02-18T14:09:29.674Z,55
2017-02-18T14:10:39.864Z,55
2017-02-18T14:11:49.613Z,55
2017-02-18T14:12:59.822Z,65
2017-02-18T14:14:10.066Z,60
2017-02-18T14:15:19.390Z,65
2017-02-18T14:16:29.599Z,50
2017-02-18T14:17:40.227Z,50
2017-02-18T14:18:49.549Z,60
2017-02-18T14:20:00.235Z,60
2017-02-18T14:21:10.434Z,55
2017-02-18T14:22:20.651Z,50
2017-02-18T14:23:30.838Z,50
2017-02-18T14:24:41.047Z,55
2017-02-18T14:25:50.839Z,50
2017-02-18T14:27:00.600Z,50
2017-02-18T14:28:10.343Z,45
2017-02-18T14:29:19.667Z,45
2017-02-18T14:30:28.972Z,50
2017-02-18T14:31:38.779Z,45
2017-02-18T14:32:48.098Z,40
2017-02-18T14:33:57.836Z,50
2017-02-18T14:35:07.601Z,45
2017-02-18T14:36:17.801Z,45
2017-02-18T14:37:28.052Z,45
2017-02-18T14:38:37.369Z,45
2017-02-18T14:39:46.686Z,45
2017-02-18T14:40:56.894Z,40
2017-02-18T14:42:07.087Z,35
2017-02-18T14:43:16.445Z,35
2017-02-18T14:44:26.658Z,35
2017-02-18T14:45:35.970Z,35
2017-02-18T14:46:46.185Z,40
2017-02-18T14:47:56.381Z,40
2017-02-18T14:49:06.618Z,35
2017-02-18T14:50:16.367Z,35
2017-02-18T14:51:26.154Z,40
2017-02-18T14:52:35.481Z,35
2017-02-18T14:53:45.236Z,40
2017-02-18T14:54:55.552Z,40
2017-02-18T14:56:06.192Z,35
2017-02-18T14:57:16.396Z,35
2017-02-18T14:58:25.709Z,40
2017-02-18T14:59:35.930Z,35
2017-02-18T15:00:45.313Z,35
2017-02-18T15:01:55.105Z,35
2017-02-18T15:03:04.864Z,35
2017-02-18T15:04:14.171Z,30
2017-02-18T15:05:23.488Z,35
2017-02-18T15:06:32.854Z,40
2017-02-18T15:07:42.614Z,35
2017-02-18T15:08:52.369Z,25
2017-02-18T15:10:01.681Z,25
2017-02-18T15:11:11.467Z,30
2017-02-18T15:12:21.280Z,30
2017-02-18T15:13:31.065Z,30
2017-02-18T15:14:41.258Z,30
2017-02-18T15:15:50.559Z,35
2017-02-18T15:17:00.751Z,30
2017-02-18T15:18:10.560Z,20
2017-02-18T15:19:20.355Z,25
2017-02-18T15:20:30.552Z,25
2017-02-18T15:21:39.879Z,25
2017-02-18T15:22:49.669Z,25
2017-02-18T15:23:59.464Z,25
2017-02-18T15:25:08.775Z,25
2017-02-18T15:26:18.076Z,25
2017-02-18T15:27:28.255Z,25
2017-02-18T15:28:38.009Z,25
2017-02-18T15:29:48.260Z,25
2017-02-18T15:30:58.022Z,15
2017-02-18T15:32:07.798Z,15
2017-02-18T15:33:17.583Z,15
2017-02-18T15:34:28.658Z,20
2017-02-18T15:35:38.891Z,20
2017-02-18T15:36:48.644Z,20
2017-02-18T15:37:59.325Z,20
2017-02-18T15:39:09.102Z,15
2017-02-18T15:40:18.866Z,15
2017-02-18T15:41:29.119Z,20
2017-02-18T15:42:38.422Z,15
2017-02-18T15:43:48.182Z,15
2017-02-18T15:44:57.927Z,15
2017-02-18T15:46:07.681Z,15
2017-02-18T15:47:17.937Z,10
2017-02-18T15:48:27.320Z,10
2017-02-18T15:49:36.653Z,10
2017-02-18T15:50:46.406Z,10
2017-02-18T15:51:56.184Z,10
2017-02-18T15:53:05.552Z,10
2017-02-18T15:54:15.313Z,15
2017-02-18T15:55:25.063Z,15
2017-02-18T15:56:34.400Z,10
2017-02-18T15:57:43.725Z,10
2017-02-18T15:58:53.524Z,15
2017-02-18T16:00:02.839Z,15
2017-02-18T16:01:12.165Z,10
2017-02-18T16:02:21.926Z,10
2017-02-18T16:03:31.235Z,10
2017-02-18T16:04:40.607Z,10
2017-02-18T16:05:50.799Z,10
2017-02-18T16:07:01.427Z,10
2017-02-18T16:08:11.631Z,5
2017-02-18T16:09:20.939Z,5
2017-02-18T16:10:31.194Z,5
2017-02-18T16:11:41.831Z,5
2017-02-18T16:12:52.017Z,5
2017-02-18T16:14:01.334Z,5
2017-02-18T16:15:10.642Z,5
2017-02-18T16:16:20.891Z,5
2017-02-18T16:17:30.681Z,5
2017-02-18T16:18:40.439Z,5
2017-02-18T16:19:51.099Z,5
2017-02-18T16:21:00.433Z,5
2017-02-18T16:22:09.798Z,5
2017-02-18T16:23:19.108Z,5
2017-02-18T16:24:28.461Z,5
2017-02-18T16:25:37.773Z,5
2017-02-18T16:26:47.586Z,5
2017-02-18T16:27:58.270Z,0
2017-02-18T16:29:08.023Z,0
2017-02-18T16:30:18.231Z,0
2017-02-18T16:31:28.003Z,0
2017-02-18T16:32:37.770Z,0
2017-02-18T16:33:47.601Z,0
2017-02-18T16:34:57.363Z,0
2017-02-18T16:36:07.551Z,0
2017-02-18T16:37:17.744Z,0
2017-02-18T16:38:27.945Z,0
2017-02-18T16:39:39.066Z,0
2017-02-18T16:40:49.693Z,0
2017-02-18T16:41:59.023Z,0
2017-02-18T16:43:08.778Z,0
2017-02-18T16:44:19.848Z,0
2017-02-18T16:45:29.660Z,0
2017-02-18T16:46:40.283Z,0
2017-02-18T16:47:50.477Z,0
2017-02-18T16:48:59.788Z,0
2017-02-18T16:50:09.971Z,0
2017-02-18T16:51:19.772Z,0
2017-02-18T16:52:29.972Z,0
2017-02-18T16:53:39.289Z,0